createdAt,value
2018-12-04T00:00:51.665Z,111.35
2018-12-04T00:15:53.479Z,109.72
2018-12-04T00:30:50.383Z,106.10
2018-12-04T00:45:52.337Z,101.07
2018-12-04T01:00:50.772Z,98.03
2018-12-04T01:15:51.674Z,96.92
2018-12-04T01:30:50.639Z,98.85
2018-12-04T01:45:50.465Z,94.30
2018-12-04T02:00:50.848Z,93.70
2018-12-04T02:15:52.805Z,100.42
2018-12-04T02:30:51.713Z,95.90
2018-12-04T02:45:50.703Z,97.15
2018-12-04T03:00:50.968Z,96.90
2018-12-04T03:15:50.954Z,97.30
2018-12-04T03:30:51.415Z,100.67
2018-12-04T03:45:57.615Z,97.45
2018-12-04T04:00:52.998Z,86.28
2018-12-04T04:15:51.111Z,90.67
2018-12-04T04:30:51.425Z,89.10
2018-12-04T04:45:51.469Z,91.37
2018-12-04T05:00:52.323Z,91.02
2018-12-04T05:15:51.279Z,93.15
2018-12-04T05:30:50.745Z,90.00
2018-12-04T05:45:51.461Z,86.02
2018-12-04T06:00:53.232Z,80.85
2018-12-04T06:15:51.393Z,80.85
2018-12-04T06:30:50.718Z,70.00
2018-12-04T06:45:50.723Z,69.70
2018-12-04T07:00:50.198Z,77.47
2018-12-04T07:15:51.983Z,79.07
2018-12-04T07:30:50.899Z,73.50
2018-12-04T07:45:50.770Z,70.37
2018-12-04T08:00:50.996Z,65.30
2018-12-04T08:15:52.683Z,69.97
2018-12-04T08:30:51.025Z,73.87
2018-12-04T08:45:50.889Z,75.35
2018-12-04T09:00:53.289Z,82.22
2018-12-04T09:15:50.775Z,85.57
2018-12-04T09:30:51.223Z,89.28
2018-12-04T09:45:50.594Z,87.78
2018-12-04T10:00:51.097Z,94.85
2018-12-04T10:15:51.017Z,96.37
2018-12-04T10:30:56.502Z,96.65
2018-12-04T10:45:51.266Z,100.10
2018-12-04T11:00:56.663Z,105.32
2018-12-04T11:15:51.077Z,101.58
2018-12-04T11:30:51.931Z,102.87
2018-12-04T11:45:51.771Z,115.88
2018-12-04T12:00:51.491Z,120.15
2018-12-04T12:15:53.023Z,132.57
2018-12-04T12:30:52.582Z,128.42
2018-12-04T12:45:51.415Z,131.47
2018-12-04T13:00:51.488Z,136.95
2018-12-04T13:15:53.607Z,136.07
2018-12-04T13:30:50.801Z,140.05
2018-12-04T13:45:50.681Z,134.93
2018-12-04T14:00:52.625Z,135.30
2018-12-04T14:15:50.530Z,138.95
2018-12-04T14:30:50.896Z,145.68
2018-12-04T14:45:50.866Z,147.57
2018-12-04T15:00:51.409Z,146.37
2018-12-04T15:15:50.696Z,152.70
2018-12-04T15:30:51.114Z,152.90
2018-12-04T16:15:56.508Z,170.30
2018-12-04T16:30:53.823Z,191.43
2018-12-04T16:45:57.324Z,151.47
2018-12-04T17:30:51.518Z,150.15
2018-12-04T17:45:55.025Z,154.18
2018-12-04T18:00:51.389Z,178.20
2018-12-04T18:15:51.793Z,239.72
2018-12-04T18:30:53.311Z,260.25
2018-12-04T19:00:51.878Z,331.43
2018-12-04T19:15:53.641Z,304.27
2018-12-04T19:30:54.010Z,288.57
2018-12-04T20:00:54.526Z,270.05
2018-12-04T20:15:54.015Z,265.77
2018-12-04T20:30:51.174Z,256.17
2018-12-04T20:45:53.186Z,227.22
2018-12-04T21:00:50.882Z,202.50
2018-12-04T21:15:50.871Z,213.72
2018-12-04T21:30:55.877Z,211.28
2018-12-04T21:45:56.386Z,217.20
2018-12-04T22:00:54.221Z,210.32
2018-12-04T22:15:51.086Z,282.95
2018-12-04T22:30:51.394Z,290.60
2018-12-04T22:45:51.368Z,281.95
2018-12-04T23:00:50.891Z,264.45
2018-12-04T23:15:50.764Z,240.65
2018-12-04T23:30:50.588Z,245.07
2018-12-04T23:45:50.579Z,231.80
